Aviation Digital Data Service (ADDS)

Output produced by METARs form (0759 UTC 10 December 2022)
found at http://aviationweather.gov/metar/data/
 
KSNS 100753Z AUTO 07005KT 10SM FEW020 11/09 A3005 RMK AO2 SLP185 T01060089 401560083
KSNS 100520Z 1006/1106 VRB04KT P6SM BKN008 OVC030 
     FM100800 12007KT P6SM SCT008 OVC050 
     FM101400 12015G20KT P6SM -RA OVC050 WS020/19050KT 
     FM101730 13030G40KT 5SM -RA OVC050 WS015/19070KT 
     TEMPO 1020/1022 2SM +RA BR BKN012 OVC025 
     FM102200 14018G28KT 5SM +SHRA BR OVC012 
     FM110300 15015KT 6SM -SHRA BR BKN012 OVC025
       
KMRY 100754Z AUTO 00000KT 10SM OVC009 11/09 A3005 RMK AO2 CIG 008V014 SLP189 T01060094 401220083
KMRY 100520Z 1006/1106 VRB03KT P6SM FEW011 SCT020 OVC035 
     FM101200 16005KT P6SM -RA OVC020 WS020/20030KT 
     FM101700 17018G25KT 5SM -RA BR BKN018 OVC030 WS020/20060KT 
     TEMPO 1020/1022 1SM +RA BR BKN009 OVC012 
     FM102200 19015G22KT 5SM +SHRA BR BKN009 OVC012 
     FM110300 21012KT 5SM SHRA BR BKN012 OVC025
       
KSJC 100753Z 14004KT 10SM FEW015 SCT022 BKN040 12/05 A3000 RMK AO2 SLP160 T01220050 401390067
KSJC 100520Z 1006/1106 19005KT P6SM FEW010 SCT100 
     FM100800 14010KT P6SM SCT050 OVC080 
     FM101000 14010G22KT P6SM VCSH OVC050 WS020/19040KT 
     FM101600 17020G30KT 2SM +RA BKN020 OVC030 WS015/20050KT 
     FM102100 13014KT 5SM SHRA BKN025 OVC040 
     FM110200 15008KT 5SM -SHRA BR BKN030 OVC040
       
KRHV 100555Z 15008KT 10SM SCT030 BKN045 12/08 A3004 RMK LAST
KSFO 100756Z 16013KT 10SM BKN040 OVC100 11/06 A2998 RMK AO2 SLP152 T01110061 401170061
KSFO 100549Z 1006/1112 17005KT P6SM BKN025 OVC035 
     FM100900 17017KT P6SM BKN030 OVC040 
     FM101000 17015G25KT P6SM VCSH OVC040 WS020/22040KT 
     FM101200 17025G35KT 4SM -RA BR OVC020 WS020/22050KT 
     FM101500 17035G47KT 2SM +RA BR BKN009 OVC015 WS020/19065KT 
     FM101900 24025G30KT 6SM -RA BR BKN025 BKN050 
     FM110200 23015KT 5SM -SHRA BR OVC030 
     FM110600 23012KT 5SM -SHRA OVC030
       
KLVK 100753Z AUTO 00000KT 10SM BKN100 10/07 A2999 RMK AO2 SLP154 T01000072 401280039
KLVK 100520Z 1006/1106 15006KT P6SM BKN030 OVC040 
     FM100800 10007KT P6SM VCSH OVC040 
     FM101000 19007KT P6SM VCSH OVC040 WS020/19035KT 
     FM101500 18015G30KT 1SM +RA BR BKN012 OVC025 WS015/19060KT 
     FM102130 21020G25KT 3SM +SHRA OVC030 
     FM110300 23008KT 5SM -SHRA BR OVC030
       
KMCE 100753Z AUTO 13008KT 9SM CLR 10/06 A3003 RMK AO2 SLP171 T01000061 401560083
KMCE 100520Z 1006/1106 12009KT P6SM BKN250 
     FM101200 13018G27KT P6SM OVC100 
     FM101500 13023G35KT 4SM SHRA BR OVC050 
     FM110000 15017G30KT 4SM SHRA BR OVC050 
     TEMPO 1100/1104 4SM TSRA BR OVC050CB